createdAt,value
2022-09-14T02:15:18.287Z,100746.72
2022-09-14T02:17:49.477Z,100752.03
2022-09-14T02:20:24.708Z,100745.81
2022-09-14T02:22:55.439Z,100744.94
2022-09-14T02:25:25.433Z,100744.06
2022-09-14T02:27:55.525Z,100743.22
2022-09-14T02:30:29.804Z,100741.41
2022-09-14T02:33:11.153Z,100732.56
2022-09-14T02:35:44.620Z,100731.69
2022-09-14T02:38:23.187Z,100729.91
2022-09-14T02:40:58.017Z,100713.97
2022-09-14T02:43:40.879Z,100718.41
2022-09-14T02:46:19.900Z,100723.72
2022-09-14T02:48:57.304Z,100719.28
2022-09-14T02:51:32.327Z,100721.06
2022-09-14T02:54:07.096Z,100720.19
2022-09-14T02:56:38.506Z,100712.19
2022-09-14T02:59:08.573Z,100714.00
2022-09-14T03:01:41.369Z,100715.78
2022-09-14T03:04:11.123Z,100721.06
2022-09-14T03:06:40.810Z,100713.13
2022-09-14T03:09:10.492Z,100713.09
2022-09-14T03:11:40.159Z,100712.22
2022-09-14T03:14:09.886Z,100711.34
2022-09-14T03:16:42.725Z,100702.50
2022-09-14T03:19:13.037Z,100700.69
2022-09-14T03:21:42.843Z,100706.03
2022-09-14T03:24:12.496Z,100706.03
2022-09-14T03:26:42.756Z,100694.53
2022-09-14T03:29:12.465Z,100690.94
2022-09-14T03:31:44.814Z,100691.84
2022-09-14T03:34:14.657Z,100687.41
2022-09-14T03:36:44.376Z,100691.84
2022-09-14T03:39:14.572Z,100686.53
2022-09-14T03:41:44.233Z,100692.75
2022-09-14T03:44:13.913Z,100688.31
2022-09-14T03:46:47.047Z,100681.22
2022-09-14T03:49:17.039Z,100687.41
2022-09-14T03:51:46.720Z,100684.75
2022-09-14T03:54:16.416Z,100668.78
2022-09-14T03:56:46.109Z,100672.34
2022-09-14T03:59:15.824Z,100671.44
2022-09-14T04:01:48.157Z,100667.94
2022-09-14T04:04:18.842Z,100666.13
2022-09-14T04:06:48.551Z,100667.91
2022-09-14T04:09:18.776Z,100667.91
2022-09-14T04:11:49.138Z,100665.22
2022-09-14T04:14:18.965Z,100658.16
2022-09-14T04:16:51.256Z,100677.66
2022-09-14T04:19:21.140Z,100675.00
2022-09-14T04:21:50.821Z,100672.34
2022-09-14T04:24:20.744Z,100666.13
2022-09-14T04:26:50.733Z,100663.47
2022-09-14T04:29:20.409Z,100660.78
2022-09-14T04:31:52.712Z,100659.03
2022-09-14T04:34:22.378Z,100653.72
2022-09-14T04:36:52.064Z,100659.91
2022-09-14T04:39:21.778Z,100658.13
2022-09-14T04:41:51.492Z,100654.56
2022-09-14T04:44:21.208Z,100658.13
2022-09-14T04:46:53.564Z,100658.13
2022-09-14T04:49:23.343Z,100654.59
2022-09-14T04:51:54.013Z,100647.50
2022-09-14T04:54:23.774Z,100655.47
2022-09-14T04:56:53.459Z,100651.03
2022-09-14T04:59:23.142Z,100651.91
2022-09-14T05:01:55.593Z,100648.38
2022-09-14T05:04:25.352Z,100651.91
2022-09-14T05:06:56.301Z,100651.03
2022-09-14T05:09:25.979Z,100652.81
2022-09-14T05:11:55.660Z,100656.34
2022-09-14T05:14:25.513Z,100652.81
2022-09-14T05:17:01.383Z,100655.47
2022-09-14T05:19:31.063Z,100650.16
2022-09-14T05:22:00.792Z,100659.03
2022-09-14T05:24:31.019Z,100644.84
2022-09-14T05:27:02.304Z,100637.75
2022-09-14T05:29:32.464Z,100643.97
2022-09-14T05:32:05.213Z,100639.53
2022-09-14T05:34:35.052Z,100643.97
2022-09-14T05:37:04.752Z,100631.56
2022-09-14T05:39:34.485Z,100629.78
2022-09-14T05:42:04.220Z,100635.97
2022-09-14T05:44:34.246Z,100637.75
2022-09-14T05:47:06.612Z,100633.31
2022-09-14T05:49:36.314Z,100643.06
2022-09-14T05:52:06.419Z,100639.53
2022-09-14T05:54:36.117Z,100641.31
2022-09-14T05:57:06.050Z,100641.31
2022-09-14T05:59:35.765Z,100631.56
2022-09-14T06:02:08.187Z,100636.88
2022-09-14T06:04:38.095Z,100634.22
2022-09-14T06:07:18.574Z,100630.66
2022-09-14T06:09:48.777Z,100636.88
2022-09-14T06:12:18.837Z,100635.09
2022-09-14T06:14:48.569Z,100624.47
2022-09-14T06:17:20.870Z,100629.78
2022-09-14T06:19:50.621Z,100630.66
2022-09-14T06:22:20.343Z,100627.13
2022-09-14T06:24:50.053Z,100634.22
2022-09-14T06:27:20.923Z,100630.72
2022-09-14T06:29:53.820Z,100637.81
2022-09-14T06:32:27.487Z,100628.94
2022-09-14T06:35:00.246Z,100642.22
2022-09-14T06:37:29.944Z,100634.25
2022-09-14T06:39:59.880Z,100635.13
2022-09-14T06:42:32.300Z,100634.28
2022-09-14T06:45:01.970Z,100641.38
2022-09-14T06:47:37.271Z,100641.38
2022-09-14T06:50:08.296Z,100639.63
2022-09-14T06:52:40.278Z,100634.28
2022-09-14T06:55:11.140Z,100632.53
2022-09-14T06:57:42.987Z,100648.47
2022-09-14T07:00:14.282Z,100653.78
2022-09-14T07:02:47.419Z,100658.22
2022-09-14T07:05:20.409Z,100656.47
2022-09-14T07:07:54.010Z,100653.81
2022-09-14T07:10:23.745Z,100652.91
2022-09-14T07:12:54.402Z,100655.56
2022-09-14T07:15:24.282Z,100648.47
2022-09-14T07:17:56.646Z,100655.59
2022-09-14T07:20:26.342Z,100655.56
2022-09-14T07:22:56.053Z,100660.91
2022-09-14T07:25:25.759Z,100660.00
2022-09-14T07:27:55.468Z,100655.56
2022-09-14T07:30:26.901Z,100656.44
2022-09-14T07:32:59.185Z,100665.31
2022-09-14T07:35:28.893Z,100668.81
2022-09-14T07:37:58.735Z,100651.97
2022-09-14T07:40:28.763Z,100652.84
2022-09-14T07:42:58.493Z,100649.25
2022-09-14T07:45:28.181Z,100650.97
2022-09-14T07:48:01.088Z,100640.22
2022-09-14T07:50:30.922Z,100623.28
2022-09-14T07:53:00.664Z,100630.31
2022-09-14T07:55:30.616Z,100632.94
2022-09-14T07:58:00.327Z,100636.47
2022-09-14T08:00:30.181Z,100632.91
2022-09-14T08:03:02.559Z,100630.22
2022-09-14T08:05:32.347Z,100637.31
2022-09-14T08:08:02.053Z,100637.31
2022-09-14T08:10:31.741Z,100639.97
2022-09-14T08:13:01.445Z,100638.22
2022-09-14T08:15:31.954Z,100635.59
2022-09-14T08:18:04.257Z,100637.38
2022-09-14T08:20:33.999Z,100633.81
2022-09-14T08:23:03.723Z,100635.59
2022-09-14T08:25:33.929Z,100632.09
2022-09-14T08:28:03.821Z,100625.88
2022-09-14T08:30:33.473Z,100625.88
2022-09-14T08:33:05.865Z,100633.88
2022-09-14T08:35:56.623Z,100636.53
2022-09-14T08:38:25.565Z,100632.97
2022-09-14T08:40:55.622Z,100623.19
2022-09-14T08:43:28.225Z,100624.06
2022-09-14T08:46:05.427Z,100622.28
2022-09-14T08:48:40.628Z,100620.50
2022-09-14T08:51:10.693Z,100626.72
2022-09-14T08:53:43.889Z,100628.50
2022-09-14T08:56:18.273Z,100629.34
2022-09-14T08:59:13.955Z,100629.34
2022-09-14T09:01:51.778Z,100618.63
2022-09-14T09:04:34.638Z,100623.00
2022-09-14T09:07:11.296Z,100621.16
2022-09-14T09:09:46.826Z,100621.09
2022-09-14T09:12:19.729Z,100621.91
2022-09-14T09:14:54.003Z,100619.13
2022-09-14T09:17:29.754Z,100627.00
2022-09-14T09:20:09.087Z,100617.03
2022-09-14T09:22:44.150Z,100624.06
2022-09-14T09:25:20.526Z,100623.03
2022-09-14T09:27:50.481Z,100610.44
2022-09-14T09:30:20.850Z,100612.19
2022-09-14T09:32:50.737Z,100609.53
2022-09-14T09:35:26.339Z,100614.97
2022-09-14T09:37:56.418Z,100612.28
2022-09-14T09:40:34.253Z,100612.34
2022-09-14T09:43:12.731Z,100611.50
2022-09-14T09:46:07.151Z,100613.25
2022-09-14T09:48:44.256Z,100603.44
2022-09-14T09:51:23.521Z,100604.38
2022-09-14T09:53:56.343Z,100598.19
2022-09-14T09:56:28.443Z,100603.59
2022-09-14T09:58:58.247Z,100608.91
2022-09-14T10:01:31.504Z,100600.03
2022-09-14T10:04:08.399Z,100596.44
2022-09-14T10:06:48.456Z,100595.56
2022-09-14T10:09:20.367Z,100600.06
2022-09-14T10:11:52.077Z,100600.09
2022-09-14T10:14:28.997Z,100601.88
2022-09-14T10:17:08.277Z,100599.22
2022-09-14T10:19:38.092Z,100601.94
2022-09-14T10:22:26.261Z,100599.25
2022-09-14T10:24:59.120Z,100596.63
2022-09-14T10:27:44.163Z,100601.06
2022-09-14T10:30:18.956Z,100593.94
2022-09-14T10:33:02.294Z,100590.44
2022-09-14T10:35:42.755Z,100578.94
2022-09-14T10:38:32.643Z,100577.19
2022-09-14T10:41:12.256Z,100582.53
2022-09-14T10:43:54.137Z,100586.97
2022-09-14T10:46:28.432Z,100581.66
2022-09-14T10:49:16.809Z,100583.41
2022-09-14T10:51:58.278Z,100581.59
2022-09-14T10:54:55.149Z,100588.69
2022-09-14T10:57:36.250Z,100581.56
2022-09-14T11:00:12.715Z,100580.59
2022-09-14T11:03:07.099Z,100577.88
2022-09-14T11:05:40.474Z,100578.75
2022-09-14T11:08:18.097Z,100584.09
2022-09-14T11:11:00.883Z,100570.78
2022-09-14T11:13:55.216Z,100566.31
2022-09-14T11:16:41.221Z,100555.59
2022-09-14T11:19:19.416Z,100560.88
2022-09-14T11:21:55.416Z,100563.50
2022-09-14T11:24:32.964Z,100562.47
2022-09-14T11:27:11.150Z,100556.13
2022-09-14T11:29:45.974Z,100553.41
2022-09-14T11:32:22.795Z,100558.63
2022-09-14T11:34:58.210Z,100566.59
2022-09-14T11:37:35.780Z,100565.66
2022-09-14T11:40:12.049Z,100566.50
2022-09-14T11:42:52.054Z,100565.63
2022-09-14T11:45:26.645Z,100557.59
2022-09-14T11:48:02.898Z,100558.59
2022-09-14T11:50:34.613Z,100563.09
2022-09-14T11:53:13.626Z,100570.25
2022-09-14T11:55:48.505Z,100567.63
2022-09-14T11:58:24.901Z,100563.22
2022-09-14T12:01:29.735Z,100564.19
2022-09-14T12:04:16.138Z,100568.75
2022-09-14T12:06:57.013Z,100559.88
2022-09-14T12:09:44.661Z,100568.75
2022-09-14T12:12:46.796Z,100561.66
2022-09-14T12:15:41.211Z,100559.91
2022-09-14T12:18:24.698Z,100562.63
2022-09-14T12:21:04.909Z,100556.41
2022-09-14T12:23:53.287Z,100557.28
2022-09-14T12:26:41.557Z,100544.84
2022-09-14T12:29:30.594Z,100547.53
2022-09-14T12:32:22.774Z,100544.03
2022-09-14T12:35:27.456Z,100556.50
2022-09-14T12:37:57.213Z,100557.41
2022-09-14T12:40:47.778Z,100549.38
2022-09-14T12:43:50.638Z,100549.47
2022-09-14T12:46:40.649Z,100550.44
2022-09-14T12:49:38.209Z,100555.81
2022-09-14T12:52:37.304Z,100560.25
2022-09-14T12:55:35.429Z,100558.41
2022-09-14T12:58:12.750Z,100555.72
2022-09-14T13:00:55.985Z,100552.19
2022-09-14T13:03:53.414Z,100552.19
2022-09-14T13:06:27.478Z,100561.13
2022-09-14T13:09:00.180Z,100556.69
2022-09-14T13:11:35.567Z,100557.56
2022-09-14T13:14:05.913Z,100554.91
2022-09-14T13:16:42.429Z,100544.22
2022-09-14T13:19:23.505Z,100550.38
2022-09-14T13:21:57.619Z,100545.91
2022-09-14T13:24:31.911Z,100536.13
2022-09-14T13:27:03.812Z,100532.59
2022-09-14T13:29:33.740Z,100531.69
2022-09-14T13:32:04.276Z,100537.94
2022-09-14T13:34:38.491Z,100534.38
2022-09-14T13:37:11.012Z,100530.78
2022-09-14T13:39:43.143Z,100530.72
2022-09-14T13:42:13.358Z,100524.47
2022-09-14T13:44:46.819Z,100520.00
2022-09-14T13:47:19.217Z,100519.06
2022-09-14T13:49:50.859Z,100519.88
2022-09-14T13:52:59.956Z,100525.13
2022-09-14T13:55:27.469Z,100520.63
2022-09-14T13:58:17.108Z,100510.78
2022-09-14T14:01:03.954Z,100515.25
2022-09-14T14:03:39.998Z,100512.53
2022-09-14T14:06:25.763Z,100512.44
2022-09-14T14:09:04.949Z,100511.56
2022-09-14T14:11:38.646Z,100511.50
2022-09-14T14:14:16.863Z,100499.88
2022-09-14T14:17:28.212Z,100497.22
2022-09-14T14:20:00.408Z,100499.88
2022-09-14T14:22:32.605Z,100498.09
2022-09-14T14:25:21.327Z,100494.53
2022-09-14T14:27:51.293Z,100491.00
2022-09-14T14:30:24.001Z,100496.34
2022-09-14T14:32:53.925Z,100481.22
2022-09-14T14:35:25.332Z,100474.97
2022-09-14T14:37:55.483Z,100473.09
2022-09-14T14:40:30.471Z,100474.03
2022-09-14T14:43:02.908Z,100473.09
2022-09-14T14:45:36.400Z,100465.13
2022-09-14T14:48:06.776Z,100461.59
2022-09-14T14:50:37.368Z,100458.94
2022-09-14T14:53:08.586Z,100450.91
2022-09-14T14:55:41.116Z,100458.94
2022-09-14T14:58:24.128Z,100453.59
2022-09-14T15:00:54.741Z,100450.91
2022-09-14T15:03:25.119Z,100450.03
2022-09-14T15:05:55.789Z,100446.47
2022-09-14T15:08:25.590Z,100444.75
2022-09-14T15:11:01.253Z,100444.84
2022-09-14T15:13:30.923Z,100444.97
2022-09-14T15:16:00.667Z,100443.16
2022-09-14T15:18:30.346Z,100442.28
2022-09-14T15:21:00.367Z,100442.28
2022-09-14T15:23:30.132Z,100436.94
2022-09-14T15:26:02.654Z,100431.63
2022-09-14T15:28:35.900Z,100434.28
2022-09-14T15:31:07.814Z,100434.34
2022-09-14T15:33:37.865Z,100434.41
2022-09-14T15:36:07.905Z,100436.25
2022-09-14T15:38:37.701Z,100434.47
2022-09-14T15:41:14.080Z,100434.53
2022-09-14T15:43:46.310Z,100430.09
2022-09-14T15:46:16.082Z,100432.75
2022-09-14T15:48:45.809Z,100425.63
2022-09-14T15:51:15.605Z,100427.44
2022-09-14T15:53:46.301Z,100429.22
2022-09-14T15:56:19.426Z,100439.97
2022-09-14T15:58:49.301Z,100436.41
2022-09-14T16:01:21.108Z,100440.88
2022-09-14T16:03:50.874Z,100437.31
2022-09-14T16:06:20.532Z,100435.53
2022-09-14T16:08:50.287Z,100434.69
2022-09-14T16:11:23.077Z,100436.47
2022-09-14T16:13:53.712Z,100431.97
2022-09-14T16:16:24.041Z,100440.88
2022-09-14T16:18:53.871Z,100427.53
2022-09-14T16:21:25.513Z,100427.53
2022-09-14T16:23:57.750Z,100431.13
2022-09-14T16:26:32.591Z,100433.81
2022-09-14T16:29:02.825Z,100426.72
2022-09-14T16:31:34.127Z,100426.72
2022-09-14T16:34:06.364Z,100428.47
2022-09-14T16:36:39.696Z,100428.50
2022-09-14T16:39:12.298Z,100432.06
2022-09-14T16:41:45.079Z,100438.38
2022-09-14T16:44:17.293Z,100434.00
2022-09-14T16:46:49.128Z,100434.06
2022-09-14T16:49:21.352Z,100435.03
2022-09-14T16:51:54.747Z,100441.31
2022-09-14T16:54:26.149Z,100437.72
2022-09-14T16:57:00.462Z,100444.88
2022-09-14T16:59:30.661Z,100451.13
2022-09-14T17:02:00.521Z,100443.13
2022-09-14T17:04:30.293Z,100443.13
2022-09-14T17:07:00.555Z,100444.00
2022-09-14T17:09:33.132Z,100444.91
2022-09-14T17:12:06.190Z,100440.47
2022-09-14T17:14:37.324Z,100439.56
2022-09-14T17:17:07.095Z,100431.56
2022-09-14T17:19:39.494Z,100444.03
2022-09-14T17:22:13.235Z,100455.63
2022-09-14T17:24:42.932Z,100442.34
2022-09-14T17:27:16.068Z,100442.41
2022-09-14T17:29:46.767Z,100447.78
2022-09-14T17:32:16.464Z,100447.84
2022-09-14T17:34:46.964Z,100442.53
2022-09-14T17:37:16.714Z,100442.59
2022-09-14T17:39:46.489Z,100438.16
2022-09-14T17:42:18.897Z,100446.16
2022-09-14T17:44:48.617Z,100445.28
2022-09-14T17:47:18.352Z,100448.03
2022-09-14T17:49:48.061Z,100443.63
2022-09-14T17:52:17.788Z,100442.81
2022-09-14T17:54:47.485Z,100437.50
2022-09-14T17:57:19.888Z,100434.91
2022-09-14T17:59:49.603Z,100439.34
2022-09-14T18:02:19.355Z,100448.28
2022-09-14T18:04:49.876Z,100441.25
2022-09-14T18:07:19.695Z,100449.25
2022-09-14T18:09:49.426Z,100449.25
2022-09-14T18:12:22.180Z,100450.22
2022-09-14T18:14:54.890Z,100448.44
2022-09-14T18:17:24.606Z,100448.47
2022-09-14T18:19:58.483Z,100448.47
2022-09-14T18:22:28.565Z,100460.03
2022-09-14T18:24:58.255Z,100455.63
2022-09-14T18:27:30.612Z,100459.19
2022-09-14T18:30:00.578Z,100459.25
2022-09-14T18:32:30.784Z,100458.38
2022-09-14T18:35:01.220Z,100464.59
2022-09-14T18:37:31.053Z,100466.38
2022-09-14T18:40:00.779Z,100465.50
2022-09-14T18:42:33.105Z,100474.38
2022-09-14T18:45:02.818Z,100470.88
2022-09-14T18:47:32.525Z,100474.44
2022-09-14T18:50:02.217Z,100475.34
2022-09-14T18:52:31.912Z,100476.28
2022-09-14T18:55:01.613Z,100472.72
2022-09-14T18:57:33.917Z,100470.06
2022-09-14T19:00:04.151Z,100471.88
2022-09-14T19:02:33.931Z,100478.09
2022-09-14T19:05:03.752Z,100479.00
2022-09-14T19:07:33.541Z,100482.56
2022-09-14T19:10:03.262Z,100484.34
2022-09-14T19:12:35.856Z,100473.75
2022-09-14T19:15:05.765Z,100490.59
2022-09-14T19:17:35.517Z,100486.19
2022-09-14T19:20:08.115Z,100495.03
2022-09-14T19:22:38.136Z,100488.88
2022-09-14T19:25:09.106Z,100495.97
2022-09-14T19:27:41.394Z,100490.63
2022-09-14T19:30:13.102Z,100498.63
2022-09-14T19:32:42.798Z,100501.28
2022-09-14T19:35:12.863Z,100492.41
2022-09-14T19:37:42.579Z,100499.47
2022-09-14T19:40:25.822Z,100501.28
2022-09-14T19:42:58.365Z,100494.16
2022-09-14T19:45:28.165Z,100489.75
2022-09-14T19:47:57.881Z,100488.84
2022-09-14T19:50:27.618Z,100495.06
2022-09-14T19:53:00.204Z,100492.41
2022-09-14T19:55:33.281Z,100495.94
2022-09-14T19:58:05.615Z,100495.94
2022-09-14T20:00:36.624Z,100487.06
2022-09-14T20:03:06.742Z,100486.22
2022-09-14T20:05:36.632Z,100487.97
2022-09-14T20:08:06.848Z,100486.22
2022-09-14T20:10:37.888Z,100488.84
2022-09-14T20:13:10.205Z,100489.72
2022-09-14T20:15:40.046Z,100488.84
2022-09-14T20:18:09.764Z,100482.66
2022-09-14T20:20:39.831Z,100488.00
2022-09-14T20:23:09.598Z,100478.22
2022-09-14T20:25:39.332Z,100481.78
2022-09-14T20:28:11.853Z,100475.56
2022-09-14T20:30:42.934Z,100479.09
2022-09-14T20:33:12.745Z,100470.25
2022-09-14T20:35:42.892Z,100471.13
2022-09-14T20:38:12.578Z,100469.31
2022-09-14T20:40:42.237Z,100473.78
2022-09-14T20:43:14.586Z,100478.22
2022-09-14T20:45:44.268Z,100478.22
2022-09-14T20:48:13.987Z,100478.22
2022-09-14T20:50:53.061Z,100472.91
2022-09-14T20:53:22.742Z,100477.34
2022-09-14T20:55:52.759Z,100474.69
2022-09-14T20:58:25.083Z,100476.44
2022-09-14T21:01:02.400Z,100478.22
2022-09-14T21:03:32.293Z,100475.59
2022-09-14T21:06:03.148Z,100472.94
2022-09-14T21:08:35.917Z,100470.25
2022-09-14T21:11:07.324Z,100472.03
2022-09-14T21:13:40.829Z,100474.66
2022-09-14T21:16:13.005Z,100479.06
2022-09-14T21:18:43.909Z,100471.13
2022-09-14T21:21:15.566Z,100479.06
2022-09-14T21:23:45.791Z,100471.13
2022-09-14T21:26:15.939Z,100470.22
2022-09-14T21:28:49.265Z,100471.97
2022-09-14T21:31:22.940Z,100468.44
2022-09-14T21:33:55.140Z,100477.28
2022-09-14T21:36:26.606Z,100475.53
2022-09-14T21:38:57.717Z,100475.53
2022-09-14T21:41:29.613Z,100471.97
2022-09-14T21:44:02.235Z,100470.19
2022-09-14T21:46:32.061Z,100483.47
2022-09-14T21:49:01.773Z,100474.63
2022-09-14T21:51:34.279Z,100480.81
2022-09-14T21:54:06.451Z,100482.59
2022-09-14T21:56:37.788Z,100474.63
2022-09-14T21:59:13.034Z,100478.16
2022-09-14T22:01:43.416Z,100485.25
2022-09-14T22:04:16.846Z,100480.84
2022-09-14T22:06:47.067Z,100482.59
2022-09-14T22:09:18.171Z,100486.16
2022-09-14T22:11:48.391Z,100487.03
2022-09-14T22:14:23.336Z,100482.63
2022-09-14T22:16:53.179Z,100485.28
2022-09-14T22:19:25.151Z,100483.53
2022-09-14T22:21:55.509Z,100481.75
2022-09-14T22:24:27.480Z,100480.88
2022-09-14T22:26:57.540Z,100488.84
2022-09-14T22:29:30.014Z,100482.66
2022-09-14T22:32:00.227Z,100479.09
2022-09-14T22:34:30.047Z,100485.31
2022-09-14T22:36:59.996Z,100487.97
2022-09-14T22:39:29.734Z,100491.53
2022-09-14T22:41:59.404Z,100488.84
2022-09-14T22:44:31.715Z,100488.84
2022-09-14T22:47:01.444Z,100487.06
2022-09-14T22:49:31.135Z,100495.06
2022-09-14T22:52:00.820Z,100492.38
2022-09-14T22:54:30.481Z,100495.94
2022-09-14T22:57:00.164Z,100483.56
2022-09-14T22:59:32.677Z,100489.75
2022-09-14T23:02:02.512Z,100487.97
2022-09-14T23:04:32.793Z,100483.56
2022-09-14T23:07:04.365Z,100487.09
2022-09-14T23:09:34.182Z,100493.28
2022-09-14T23:12:04.246Z,100487.97
2022-09-14T23:14:36.569Z,100488.84
2022-09-14T23:17:06.337Z,100491.50
2022-09-14T23:19:36.084Z,100492.41
2022-09-14T23:22:05.822Z,100494.16
2022-09-14T23:24:35.484Z,100484.44
2022-09-14T23:27:05.167Z,100491.50
2022-09-14T23:29:37.456Z,100502.13
2022-09-14T23:32:07.565Z,100490.63
2022-09-14T23:34:37.304Z,100492.41
2022-09-14T23:37:07.112Z,100491.50
2022-09-14T23:39:36.836Z,100493.28
2022-09-14T23:42:07.181Z,100489.75
2022-09-14T23:44:39.559Z,100495.06
2022-09-14T23:47:09.521Z,100503.91
2022-09-14T23:49:39.172Z,100496.84
2022-09-14T23:52:08.870Z,100498.59
2022-09-14T23:54:38.580Z,100495.94
2022-09-14T23:57:08.435Z,100497.72
2022-09-14T23:59:40.770Z,100501.25
